Teaneck, New Jersey
Current Conditions -  °F | °C
As of 3:51 PM on Thursday 18 Dec 2014 (Local Time) from KTEB Reporting Station
Overcast Overcast  
Wind Chill: 34°   Ceiling: 3800
Heat Index: 40°   Visibility: 10mi
Dew Point: 25°   Wind: 8mph
Humidity: 55%   Direction: 300°WNW
Pressure: 29.96"   Gusts: 22mph
Location:  40.88°N, 74.01°W
Report Text: KTEB 182051Z 30007G19KT 10SM OVC038 04/M04 A2996 RMK AO2 SLP145 T00441039 53005
Loading
Personal Weather Stations






























Interactive Weather Map New forecast layout! Learn more

10-Day Weather Forecast

Advertisements
Track Severe Weather on mobile